createdAt,value
2022-10-24T00:01:46.969Z,101835.47
2022-10-24T00:06:47.817Z,101754.63
2022-10-24T00:11:44.940Z,101802.53
2022-10-24T00:16:42.487Z,101811.88
2022-10-24T00:21:41.275Z,101790.84
2022-10-24T00:26:38.528Z,101827.50
2022-10-24T00:31:36.014Z,101746.00
2022-10-24T00:36:40.962Z,101832.00
2022-10-24T00:41:41.404Z,101791.22
2022-10-24T00:46:38.754Z,101822.63
2022-10-24T00:51:36.353Z,101842.09
2022-10-24T00:56:37.589Z,101829.59
2022-10-24T01:01:34.910Z,101782.34
2022-10-24T01:06:46.505Z,101841.28
2022-10-24T01:11:57.501Z,101841.16
2022-10-24T01:17:05.064Z,101776.75
2022-10-24T01:22:12.719Z,101799.56
2022-10-24T01:27:40.524Z,101750.28
2022-10-24T01:32:51.561Z,101811.34
2022-10-24T01:37:57.532Z,101829.56
2022-10-24T01:43:00.474Z,101805.66
2022-10-24T01:48:01.796Z,101735.03
2022-10-24T01:53:00.048Z,101830.22
2022-10-24T01:57:57.096Z,101784.34
2022-10-24T02:02:57.084Z,101829.97
2022-10-24T02:08:02.655Z,101819.84
2022-10-24T02:13:01.816Z,101831.25
2022-10-24T02:17:59.601Z,101828.84
2022-10-24T02:23:03.642Z,101732.94
2022-10-24T02:28:07.399Z,101764.66
2022-10-24T02:33:05.683Z,101818.84
2022-10-24T02:38:12.262Z,101816.41
2022-10-24T02:43:12.881Z,101786.81
2022-10-24T02:48:12.439Z,101792.78
2022-10-24T02:53:13.091Z,101804.91
2022-10-24T02:58:10.182Z,101733.97
2022-10-24T03:03:07.143Z,101829.09
2022-10-24T03:08:04.381Z,101839.03
2022-10-24T03:13:03.088Z,101829.41
2022-10-24T03:18:00.597Z,101794.38
2022-10-24T03:22:57.583Z,101780.94
2022-10-24T03:27:54.529Z,101834.19
2022-10-24T03:32:52.193Z,101831.16
2022-10-24T03:37:49.118Z,101828.75
2022-10-24T03:42:46.204Z,101824.53
2022-10-24T03:47:43.343Z,101726.09
2022-10-24T03:52:43.849Z,101792.03
2022-10-24T03:57:55.397Z,101847.06
2022-10-24T04:02:55.441Z,101712.38
2022-10-24T04:07:59.433Z,101699.09
2022-10-24T04:12:56.875Z,101784.34
2022-10-24T04:17:58.820Z,101819.53
2022-10-24T04:22:57.672Z,101797.25
2022-10-24T04:27:55.286Z,101792.84
2022-10-24T04:32:59.206Z,101816.84
2022-10-24T04:38:04.490Z,101785.03
2022-10-24T04:43:01.385Z,101789.41
2022-10-24T04:48:01.464Z,101772.53
2022-10-24T04:53:01.852Z,101738.72
2022-10-24T04:58:44.805Z,101816.06
2022-10-24T05:03:44.287Z,101857.94
2022-10-24T05:08:45.571Z,101827.22
2022-10-24T05:14:00.461Z,101780.97
2022-10-24T05:18:59.737Z,101747.56
2022-10-24T05:23:59.859Z,101716.28
2022-10-24T05:28:57.204Z,101794.81
2022-10-24T05:34:02.697Z,101749.25
2022-10-24T05:39:09.534Z,101840.66
2022-10-24T05:44:12.686Z,101799.16
2022-10-24T05:49:13.659Z,101834.09
2022-10-24T05:54:13.889Z,101841.09
2022-10-24T05:59:10.901Z,101740.09
2022-10-24T06:04:10.079Z,101883.25
2022-10-24T06:09:11.432Z,101827.88
2022-10-24T06:14:08.587Z,101870.31
2022-10-24T06:19:05.809Z,101889.06
2022-10-24T06:24:08.795Z,101892.19
2022-10-24T06:29:18.749Z,101770.13
2022-10-24T06:34:16.366Z,101836.91
2022-10-24T06:39:27.201Z,101883.16
2022-10-24T06:44:25.326Z,101909.94
2022-10-24T06:49:22.455Z,101855.59
2022-10-24T06:54:24.118Z,101859.47
2022-10-24T06:59:24.344Z,101875.84
2022-10-24T07:04:21.404Z,101891.09
2022-10-24T07:09:18.336Z,101895.84
2022-10-24T07:14:15.165Z,101871.41
2022-10-24T07:19:12.759Z,101896.84
2022-10-24T07:24:12.187Z,101889.66
2022-10-24T07:29:09.230Z,101897.97
2022-10-24T07:34:08.286Z,101879.91
2022-10-24T07:39:09.773Z,101864.66
2022-10-24T07:49:33.801Z,101899.41
2022-10-24T07:54:37.266Z,101792.78
2022-10-24T07:59:42.954Z,101823.91
2022-10-24T08:04:40.793Z,101846.97
2022-10-24T08:09:54.564Z,101773.13
2022-10-24T08:15:04.895Z,101759.19
2022-10-24T08:20:02.248Z,101784.41
2022-10-24T08:25:00.338Z,101842.75
2022-10-24T08:29:58.686Z,101860.41
2022-10-24T08:35:01.617Z,101884.19
2022-10-24T08:39:59.501Z,101860.41
2022-10-24T08:44:56.503Z,101880.66
2022-10-24T08:50:04.523Z,101876.00
2022-10-24T08:55:43.891Z,101822.94
2022-10-24T09:01:10.607Z,101863.06
2022-10-24T09:06:13.672Z,101835.81
2022-10-24T09:11:26.375Z,101846.34
2022-10-24T09:16:27.141Z,101852.50
2022-10-24T09:21:27.271Z,101801.13
2022-10-24T09:26:34.156Z,101846.19
2022-10-24T09:31:38.206Z,101840.59
2022-10-24T09:36:39.691Z,101751.59
2022-10-24T09:41:46.590Z,101776.69
2022-10-24T09:46:45.994Z,101759.66
2022-10-24T09:51:47.219Z,101796.75
2022-10-24T09:56:48.975Z,101803.97
2022-10-24T10:01:48.878Z,101821.88
2022-10-24T10:06:53.546Z,101766.06
2022-10-24T10:12:05.531Z,101762.38
2022-10-24T10:17:05.156Z,101748.25
2022-10-24T10:22:05.007Z,101696.13
2022-10-24T10:27:29.751Z,101699.03
2022-10-24T10:32:33.202Z,101688.56
2022-10-24T10:37:31.070Z,101755.28
2022-10-24T10:42:36.245Z,101756.19
2022-10-24T10:47:51.191Z,101747.72
2022-10-24T10:52:49.513Z,101726.38
2022-10-24T10:57:54.303Z,101759.00
2022-10-24T11:03:02.995Z,101690.78
2022-10-24T11:08:19.131Z,101693.44
2022-10-24T11:13:23.363Z,101722.81
2022-10-24T11:18:26.626Z,101681.25
2022-10-24T11:23:35.753Z,101704.13
2022-10-24T11:28:39.412Z,101732.75
2022-10-24T11:33:46.620Z,101720.72
2022-10-24T11:38:57.505Z,101644.19
2022-10-24T11:44:23.544Z,101711.13
2022-10-24T11:50:04.926Z,101668.06
2022-10-24T11:55:15.602Z,101693.03
2022-10-24T12:00:38.980Z,101654.06
2022-10-24T12:06:23.018Z,101691.56
2022-10-24T12:11:32.681Z,101703.72
2022-10-24T12:17:17.199Z,101586.38
2022-10-24T12:22:47.515Z,101590.06
2022-10-24T12:27:45.056Z,101656.81
2022-10-24T12:32:50.013Z,101663.28
2022-10-24T12:37:58.088Z,101627.28
2022-10-24T12:43:18.446Z,101584.06
2022-10-24T12:48:29.349Z,101613.94
2022-10-24T12:53:38.768Z,101600.91
2022-10-24T12:58:49.460Z,101600.38
2022-10-24T13:04:30.586Z,101648.72
2022-10-24T13:09:38.247Z,101559.22
2022-10-24T13:15:00.111Z,101640.00
2022-10-24T13:20:17.208Z,101621.41
2022-10-24T13:25:33.389Z,101589.31
2022-10-24T13:30:37.904Z,101569.25
2022-10-24T13:35:37.106Z,101552.31
2022-10-24T13:40:47.698Z,101583.38
2022-10-24T13:45:53.771Z,101539.09
2022-10-24T13:51:05.756Z,101596.47
2022-10-24T13:56:10.986Z,101619.22
2022-10-24T14:01:28.806Z,101566.59
2022-10-24T14:06:34.869Z,101586.75
2022-10-24T14:11:35.274Z,101603.00
2022-10-24T14:16:35.066Z,101552.94
2022-10-24T14:21:44.660Z,101572.25
2022-10-24T14:26:44.930Z,101545.03
2022-10-24T14:32:08.110Z,101490.50
2022-10-24T14:37:44.647Z,101478.72
2022-10-24T14:42:51.590Z,101578.53
2022-10-24T14:47:52.848Z,101566.16
2022-10-24T14:52:58.233Z,101569.38
2022-10-24T14:57:59.341Z,101558.47
2022-10-24T15:03:01.019Z,101474.25
2022-10-24T15:08:34.910Z,101586.34
2022-10-24T15:13:33.567Z,101588.81
2022-10-24T15:18:32.439Z,101466.88
2022-10-24T15:23:37.570Z,101596.16
2022-10-24T15:29:17.711Z,101563.81
2022-10-24T15:34:18.510Z,101483.66
2022-10-24T15:39:23.205Z,101581.00
2022-10-24T15:45:13.547Z,101576.97
2022-10-24T15:50:03.519Z,101537.03
2022-10-24T15:55:06.057Z,101569.66
2022-10-24T16:00:09.605Z,101557.81
2022-10-24T16:05:29.412Z,101501.28
2022-10-24T16:11:09.980Z,101593.34
2022-10-24T16:16:19.918Z,101558.66
2022-10-24T16:21:26.744Z,101575.84
2022-10-24T16:26:23.964Z,101609.25
2022-10-24T16:31:40.037Z,101542.44
2022-10-24T16:36:40.335Z,101553.75
2022-10-24T16:41:37.403Z,101605.88
2022-10-24T16:46:37.568Z,101615.25
2022-10-24T16:52:43.387Z,101489.44
2022-10-24T16:58:05.631Z,101610.69
2022-10-24T17:03:03.610Z,101559.81
2022-10-24T17:08:03.451Z,101610.16
2022-10-24T17:13:07.153Z,101582.38
2022-10-24T17:18:26.549Z,101520.59
2022-10-24T17:23:24.909Z,101558.13
2022-10-24T17:28:33.077Z,101615.53
2022-10-24T17:33:41.852Z,101607.88
2022-10-24T17:44:47.693Z,101545.41
2022-10-24T17:50:09.738Z,101611.66
2022-10-24T17:55:41.009Z,101478.31
2022-10-24T18:00:39.202Z,101542.38
2022-10-24T18:05:38.439Z,101597.75
2022-10-24T18:10:37.629Z,101513.16
2022-10-24T18:15:35.886Z,101501.06
2022-10-24T18:20:42.112Z,101591.44
2022-10-24T18:25:39.303Z,101471.72
2022-10-24T18:30:36.694Z,101563.84
2022-10-24T18:35:43.790Z,101583.25
2022-10-24T18:40:45.199Z,101555.31
2022-10-24T18:45:43.165Z,101546.03
2022-10-24T18:50:50.391Z,101583.84
2022-10-24T18:55:48.827Z,101549.75
2022-10-24T19:00:47.116Z,101451.50
2022-10-24T19:05:54.611Z,101465.31
2022-10-24T19:11:00.202Z,101575.91
2022-10-24T19:16:02.742Z,101570.41
2022-10-24T19:20:59.972Z,101519.38
2022-10-24T19:25:58.161Z,101545.09
2022-10-24T19:31:01.287Z,101539.38
2022-10-24T19:36:03.387Z,101511.13
2022-10-24T19:41:06.128Z,101472.50
2022-10-24T19:46:24.923Z,101462.09
2022-10-24T19:51:33.743Z,101545.81
2022-10-24T19:56:32.792Z,101495.53
2022-10-24T20:01:30.152Z,101431.94
2022-10-24T20:06:27.585Z,101499.53
2022-10-24T20:11:25.906Z,101493.97
2022-10-24T20:16:23.807Z,101516.31
2022-10-24T20:21:20.854Z,101515.66
2022-10-24T20:26:20.397Z,101426.47
2022-10-24T20:31:37.653Z,101477.91
2022-10-24T20:36:42.292Z,101452.53
2022-10-24T20:41:39.647Z,101522.41
2022-10-24T20:46:37.425Z,101480.72
2022-10-24T20:51:34.391Z,101402.47
2022-10-24T20:56:31.342Z,101486.25
2022-10-24T21:01:43.617Z,101433.41
2022-10-24T21:06:40.742Z,101534.53
2022-10-24T21:11:38.336Z,101530.59
2022-10-24T21:16:37.894Z,101429.84
2022-10-24T21:21:35.657Z,101432.59
2022-10-24T21:26:33.109Z,101518.66
2022-10-24T21:31:33.780Z,101437.13
2022-10-24T21:36:38.739Z,101406.56
2022-10-24T21:41:39.864Z,101484.94
2022-10-24T21:46:36.924Z,101415.66
2022-10-24T21:51:36.256Z,101479.09
2022-10-24T21:56:36.139Z,101488.63
2022-10-24T22:01:35.686Z,101488.72
2022-10-24T22:06:34.427Z,101499.25
2022-10-24T22:11:33.086Z,101513.09
2022-10-24T22:16:31.489Z,101454.28
2022-10-24T22:21:33.408Z,101499.06
2022-10-24T22:26:31.998Z,101508.72
2022-10-24T22:31:30.042Z,101512.34
2022-10-24T22:36:39.970Z,101514.50
2022-10-24T22:41:37.527Z,101438.50
2022-10-24T22:46:50.331Z,101506.91
2022-10-24T22:51:48.498Z,101447.81
2022-10-24T22:56:46.455Z,101493.19
2022-10-24T23:01:57.386Z,101406.88
2022-10-24T23:06:58.330Z,101475.94
2022-10-24T23:11:58.866Z,101501.53
2022-10-24T23:17:04.172Z,101437.44
2022-10-24T23:22:13.351Z,101377.72
2022-10-24T23:27:25.585Z,101487.00
2022-10-24T23:32:25.581Z,101448.16
2022-10-24T23:37:31.059Z,101478.25
2022-10-24T23:42:31.236Z,101502.53
2022-10-24T23:47:47.848Z,101397.00
2022-10-24T23:53:11.354Z,101501.19
2022-10-24T23:58:10.446Z,101504.72
